createdAt,value
2018-12-18T00:01:39.165Z,100043.13
2018-12-18T00:04:08.257Z,100043.89
2018-12-18T00:06:37.090Z,100036.00
2018-12-18T00:09:06.902Z,100034.78
2018-12-18T00:11:35.848Z,100035.56
2018-12-18T00:14:04.676Z,100037.03
2018-12-18T00:16:33.955Z,100041.63
2018-12-18T00:19:02.884Z,100045.19
2018-12-18T00:21:32.017Z,100055.67
2018-12-18T00:24:01.220Z,100055.28
2018-12-18T00:26:30.149Z,100053.86
2018-12-18T00:28:59.327Z,100050.00
2018-12-18T00:31:28.223Z,100050.83
2018-12-18T00:33:57.008Z,100041.45
2018-12-18T00:36:25.924Z,100040.45
2018-12-18T00:38:54.866Z,100044.33
2018-12-18T00:41:23.801Z,100049.09
2018-12-18T00:43:52.745Z,100053.98
2018-12-18T00:46:21.671Z,100060.09
2018-12-18T00:48:50.613Z,100071.68
2018-12-18T00:51:19.459Z,100073.66
2018-12-18T00:53:48.381Z,100069.75
2018-12-18T00:56:17.341Z,100067.94
2018-12-18T00:58:46.213Z,100059.27
2018-12-18T01:01:15.036Z,100060.84
2018-12-18T01:03:43.863Z,100062.73
2018-12-18T01:06:12.766Z,100061.08
2018-12-18T01:08:41.740Z,100066.79
2018-12-18T01:11:10.646Z,100055.44
2018-12-18T01:13:39.479Z,100053.16
2018-12-18T01:16:08.304Z,100055.44
2018-12-18T01:18:37.142Z,100052.09
2018-12-18T01:21:06.560Z,100053.07
2018-12-18T01:23:35.892Z,100058.36
2018-12-18T01:26:04.869Z,100058.44
2018-12-18T01:28:33.773Z,100054.62
2018-12-18T01:31:02.725Z,100059.81
2018-12-18T01:33:31.721Z,100063.28
2018-12-18T01:36:00.669Z,100061.36
2018-12-18T01:38:29.749Z,100057.65
2018-12-18T01:40:58.630Z,100058.98
2018-12-18T01:43:27.571Z,100053.12
2018-12-18T01:45:56.489Z,100047.95
2018-12-18T01:48:25.317Z,100043.73
2018-12-18T01:50:54.670Z,100038.66
2018-12-18T01:53:23.469Z,100034.23
2018-12-18T01:55:52.276Z,100034.31
2018-12-18T01:58:21.197Z,100039.28
2018-12-18T02:00:50.017Z,100046.85
2018-12-18T02:03:18.933Z,100046.06
2018-12-18T02:05:47.896Z,100044.64
2018-12-18T02:08:16.870Z,100038.93
2018-12-18T02:10:45.729Z,100033.77
2018-12-18T02:13:14.633Z,100041.92
2018-12-18T02:15:43.506Z,100036.36
2018-12-18T02:18:12.332Z,100041.02
2018-12-18T02:20:41.253Z,100041.22
2018-12-18T02:23:10.120Z,100041.13
2018-12-18T02:25:38.932Z,100042.44
2018-12-18T02:28:07.869Z,100040.63
2018-12-18T02:30:36.731Z,100035.22
2018-12-18T02:33:05.569Z,100039.83
2018-12-18T02:35:34.512Z,100038.65
2018-12-18T02:38:04.141Z,100035.53
2018-12-18T02:40:33.069Z,100034.67
2018-12-18T02:43:01.897Z,100035.54
2018-12-18T02:45:30.814Z,100041.72
2018-12-18T02:47:59.656Z,100044.72
2018-12-18T02:50:28.634Z,100039.88
2018-12-18T02:52:57.560Z,100044.95
2018-12-18T02:55:26.397Z,100044.16
2018-12-18T02:57:55.707Z,100036.36
2018-12-18T03:00:24.642Z,100038.33
2018-12-18T03:02:53.438Z,100043.53
2018-12-18T03:05:22.389Z,100047.32
2018-12-18T03:07:51.313Z,100051.45
2018-12-18T03:10:20.133Z,100055.91
2018-12-18T03:12:49.065Z,100058.63
2018-12-18T03:15:17.891Z,100060.69
2018-12-18T03:17:46.940Z,100063.72
2018-12-18T03:20:22.518Z,100062.89
2018-12-18T03:22:51.460Z,100073.73
2018-12-18T03:25:20.429Z,100077.48
2018-12-18T03:27:49.351Z,100080.00
2018-12-18T03:30:18.287Z,100081.75
2018-12-18T03:32:50.042Z,100081.97
2018-12-18T03:35:18.950Z,100089.41
2018-12-18T03:37:47.885Z,100094.14
2018-12-18T03:40:17.390Z,100098.77
2018-12-18T03:42:46.374Z,100108.37
2018-12-18T03:45:15.396Z,100110.11
2018-12-18T03:47:44.372Z,100112.27
2018-12-18T03:50:13.292Z,100108.52
2018-12-18T03:52:42.214Z,100110.54
2018-12-18T03:55:11.034Z,100111.48
2018-12-18T03:57:40.489Z,100109.92
2018-12-18T04:00:11.178Z,100119.53
2018-12-18T04:02:40.154Z,100122.53
2018-12-18T04:05:09.575Z,100128.06
2018-12-18T04:07:38.628Z,100131.39
2018-12-18T04:10:07.919Z,100136.05
2018-12-18T04:12:37.888Z,100139.09
2018-12-18T04:15:07.277Z,100142.12
2018-12-18T04:17:36.359Z,100138.36
2018-12-18T04:20:05.411Z,100143.59
2018-12-18T04:22:34.353Z,100144.09
2018-12-18T04:25:03.997Z,100136.70
2018-12-18T04:27:33.889Z,100143.73
2018-12-18T04:30:04.196Z,100145.90
2018-12-18T04:32:34.230Z,100142.20
2018-12-18T04:35:04.882Z,100149.37
2018-12-18T04:37:34.838Z,100152.37
2018-12-18T04:40:05.481Z,100152.94
2018-12-18T04:42:35.181Z,100145.23
2018-12-18T04:45:04.327Z,100159.19
2018-12-18T04:47:33.315Z,100140.03
2018-12-18T04:50:02.120Z,100149.03
2018-12-18T04:52:31.066Z,100156.86
2018-12-18T04:55:00.100Z,100151.06
2018-12-18T04:57:29.124Z,100151.53
2018-12-18T04:59:58.218Z,100161.07
2018-12-18T05:02:27.118Z,100167.27
2018-12-18T05:04:55.941Z,100173.73
2018-12-18T05:07:24.826Z,100170.91
2018-12-18T05:09:53.709Z,100180.95
2018-12-18T05:12:22.640Z,100183.83
2018-12-18T05:14:51.509Z,100175.87
2018-12-18T05:17:20.458Z,100176.95
2018-12-18T05:19:49.509Z,100180.23
2018-12-18T05:22:18.549Z,100173.83
2018-12-18T05:24:47.404Z,100182.50
2018-12-18T05:27:16.333Z,100180.45
2018-12-18T05:29:45.178Z,100185.63
2018-12-18T05:32:14.366Z,100192.98
2018-12-18T05:34:43.195Z,100191.34
2018-12-18T05:37:12.279Z,100189.55
2018-12-18T05:39:41.275Z,100198.01
2018-12-18T05:42:10.208Z,100202.17
2018-12-18T05:44:39.004Z,100200.61
2018-12-18T05:47:07.938Z,100204.28
2018-12-18T05:49:36.800Z,100204.83
2018-12-18T05:52:06.097Z,100214.12
2018-12-18T05:54:35.182Z,100216.03
2018-12-18T05:57:03.994Z,100218.77
2018-12-18T05:59:33.017Z,100214.59
2018-12-18T06:02:01.821Z,100216.09
2018-12-18T06:04:30.763Z,100220.05
2018-12-18T06:06:59.680Z,100217.58
2018-12-18T06:09:28.528Z,100224.44
2018-12-18T06:11:57.345Z,100231.84
2018-12-18T06:14:26.308Z,100235.72
2018-12-18T06:16:55.215Z,100239.19
2018-12-18T06:19:24.041Z,100230.92
2018-12-18T06:21:52.995Z,100235.19
2018-12-18T06:24:21.989Z,100239.92
2018-12-18T06:26:50.946Z,100243.52
2018-12-18T06:29:19.850Z,100250.42
2018-12-18T06:31:48.806Z,100249.09
2018-12-18T06:34:17.656Z,100251.26
2018-12-18T06:36:46.506Z,100251.53
2018-12-18T06:39:15.474Z,100255.27
2018-12-18T06:41:44.375Z,100260.41
2018-12-18T06:44:13.181Z,100258.16
2018-12-18T06:46:42.864Z,100261.30
2018-12-18T06:49:11.685Z,100257.81
2018-12-18T06:51:40.683Z,100252.69
2018-12-18T06:54:09.644Z,100248.38
2018-12-18T06:56:38.465Z,100248.50
2018-12-18T06:59:07.333Z,100252.78
2018-12-18T07:01:36.161Z,100250.73
2018-12-18T07:04:05.217Z,100259.44
2018-12-18T07:06:34.085Z,100267.97
2018-12-18T07:09:04.461Z,100269.14
2018-12-18T07:11:33.468Z,100272.38
2018-12-18T07:14:02.307Z,100275.89
2018-12-18T07:16:31.357Z,100282.39
2018-12-18T07:19:00.325Z,100284.11
2018-12-18T07:21:29.181Z,100286.27
2018-12-18T07:23:58.108Z,100293.94
2018-12-18T07:26:27.145Z,100301.51
2018-12-18T07:28:55.945Z,100302.05
2018-12-18T07:31:24.901Z,100307.03
2018-12-18T07:33:53.728Z,100314.82
2018-12-18T07:36:22.530Z,100327.84
2018-12-18T07:38:51.425Z,100322.83
2018-12-18T07:41:20.350Z,100329.41
2018-12-18T07:43:49.283Z,100331.31
2018-12-18T07:46:18.786Z,100335.25
2018-12-18T07:48:47.798Z,100333.57
2018-12-18T07:51:16.612Z,100332.22
2018-12-18T07:53:45.433Z,100334.05
2018-12-18T07:56:14.461Z,100333.53
2018-12-18T07:58:43.397Z,100332.66
2018-12-18T08:01:12.459Z,100330.41
2018-12-18T08:03:41.297Z,100332.33
2018-12-18T08:06:10.259Z,100331.45
2018-12-18T08:08:39.192Z,100331.83
2018-12-18T08:11:08.014Z,100335.78
2018-12-18T08:13:37.050Z,100337.16
2018-12-18T08:16:05.968Z,100337.93
2018-12-18T08:18:34.913Z,100336.22
2018-12-18T08:21:03.891Z,100335.67
2018-12-18T08:23:32.716Z,100323.65
2018-12-18T08:26:01.532Z,100327.04
2018-12-18T08:28:30.584Z,100323.22
2018-12-18T08:30:59.455Z,100329.25
2018-12-18T08:33:28.362Z,100339.17
2018-12-18T08:35:57.378Z,100348.23
2018-12-18T08:38:26.197Z,100356.41
2018-12-18T08:40:55.016Z,100363.84
2018-12-18T08:43:23.961Z,100368.34
2018-12-18T08:45:52.806Z,100372.09
2018-12-18T08:48:21.867Z,100362.37
2018-12-18T08:50:51.199Z,100362.52
2018-12-18T08:53:20.013Z,100359.54
2018-12-18T08:55:48.981Z,100355.17
2018-12-18T08:58:18.013Z,100353.45
2018-12-18T09:00:46.991Z,100347.42
2018-12-18T09:03:15.966Z,100340.86
2018-12-18T09:05:44.978Z,100341.27
2018-12-18T09:08:13.999Z,100342.94
2018-12-18T09:10:42.875Z,100344.56
2018-12-18T09:13:11.793Z,100344.23
2018-12-18T09:15:46.417Z,100342.64
2018-12-18T09:18:15.411Z,100349.63
2018-12-18T09:20:44.391Z,100344.42
2018-12-18T09:23:13.448Z,100334.81
2018-12-18T09:25:42.506Z,100333.03
2018-12-18T09:28:11.408Z,100338.66
2018-12-18T09:30:42.708Z,100340.80
2018-12-18T09:33:11.911Z,100335.13
2018-12-18T09:35:41.051Z,100333.05
2018-12-18T09:38:15.581Z,100324.38
2018-12-18T09:40:50.201Z,100329.56
2018-12-18T09:43:24.703Z,100334.78
2018-12-18T09:45:53.641Z,100334.81
2018-12-18T09:48:22.565Z,100327.39
2018-12-18T09:50:51.472Z,100329.60
2018-12-18T09:53:20.389Z,100327.47
2018-12-18T09:55:49.508Z,100329.21
2018-12-18T09:58:18.508Z,100325.81
2018-12-18T10:00:47.582Z,100317.59
2018-12-18T10:03:16.476Z,100317.55
2018-12-18T10:05:45.540Z,100319.66
2018-12-18T10:08:14.518Z,100320.08
2018-12-18T10:10:43.555Z,100323.11
2018-12-18T10:13:12.804Z,100319.64
2018-12-18T10:15:41.924Z,100318.86
2018-12-18T10:18:10.764Z,100316.67
2018-12-18T10:20:39.927Z,100310.98
2018-12-18T10:23:08.832Z,100313.20
2018-12-18T10:25:37.665Z,100311.44
2018-12-18T10:28:06.749Z,100307.77
2018-12-18T10:30:35.652Z,100303.61
2018-12-18T10:33:06.156Z,100296.98
2018-12-18T10:35:36.646Z,100294.02
2018-12-18T10:38:05.769Z,100291.48
2018-12-18T10:40:34.672Z,100288.02
2018-12-18T10:43:03.709Z,100283.23
2018-12-18T10:45:34.134Z,100290.73
2018-12-18T10:48:03.056Z,100288.12
2018-12-18T10:50:32.022Z,100282.12
2018-12-18T10:53:00.940Z,100277.66
2018-12-18T10:55:29.808Z,100272.45
2018-12-18T10:57:58.717Z,100270.20
2018-12-18T11:00:33.028Z,100278.05
2018-12-18T11:03:01.930Z,100282.30
2018-12-18T11:05:30.959Z,100285.27
2018-12-18T11:07:59.817Z,100285.78
2018-12-18T11:10:28.740Z,100281.43
2018-12-18T11:13:03.146Z,100281.36
2018-12-18T11:15:32.114Z,100282.25
2018-12-18T11:18:00.937Z,100277.11
2018-12-18T11:20:29.867Z,100278.33
2018-12-18T11:22:58.700Z,100274.75
2018-12-18T11:25:27.681Z,100279.27
2018-12-18T11:27:56.513Z,100266.29
2018-12-18T11:30:25.341Z,100263.95
2018-12-18T11:32:54.281Z,100270.47
2018-12-18T11:35:23.230Z,100270.56
2018-12-18T11:37:52.200Z,100268.78
2018-12-18T11:40:21.145Z,100269.15
2018-12-18T11:42:50.148Z,100267.48
2018-12-18T11:45:18.972Z,100272.34
2018-12-18T11:47:47.891Z,100270.13
2018-12-18T11:50:16.823Z,100273.61
2018-12-18T11:52:45.952Z,100271.86
2018-12-18T11:55:14.766Z,100266.69
2018-12-18T11:57:43.604Z,100269.31
2018-12-18T12:00:15.444Z,100265.36
2018-12-18T12:02:44.533Z,100264.65
2018-12-18T12:05:13.373Z,100264.04
2018-12-18T12:07:42.287Z,100261.85
2018-12-18T12:10:11.329Z,100266.95
2018-12-18T12:12:44.094Z,100269.22
2018-12-18T12:15:13.541Z,100264.45
2018-12-18T12:17:42.555Z,100263.19
2018-12-18T12:20:11.501Z,100273.45
2018-12-18T12:22:40.620Z,100269.55
2018-12-18T12:25:09.609Z,100269.73
2018-12-18T12:27:44.818Z,100270.66
2018-12-18T12:30:13.808Z,100276.41
2018-12-18T12:32:42.724Z,100274.75
2018-12-18T12:35:11.725Z,100279.72
2018-12-18T12:37:40.861Z,100273.95
2018-12-18T12:40:10.205Z,100275.91
2018-12-18T12:42:39.104Z,100274.41
2018-12-18T12:45:08.154Z,100271.78
2018-12-18T12:47:37.381Z,100268.50
2018-12-18T12:50:06.644Z,100263.39
2018-12-18T12:52:35.740Z,100255.53
2018-12-18T12:55:05.221Z,100264.61
2018-12-18T12:57:34.134Z,100268.11
2018-12-18T13:00:03.410Z,100273.57
2018-12-18T13:02:32.333Z,100270.20
2018-12-18T13:05:01.270Z,100279.49
2018-12-18T13:07:30.294Z,100282.20
2018-12-18T13:09:59.164Z,100278.36
2018-12-18T13:12:29.445Z,100279.19
2018-12-18T13:14:58.684Z,100277.05
2018-12-18T13:17:27.628Z,100276.18
2018-12-18T13:19:57.605Z,100283.50
2018-12-18T13:22:26.572Z,100275.20
2018-12-18T13:24:55.721Z,100276.20
2018-12-18T13:27:24.949Z,100270.99
2018-12-18T13:29:53.947Z,100277.90
2018-12-18T13:32:23.045Z,100273.11
2018-12-18T13:34:52.130Z,100275.30
2018-12-18T13:37:21.162Z,100277.48
2018-12-18T13:39:50.213Z,100281.36
2018-12-18T13:42:19.156Z,100276.69
2018-12-18T13:44:48.472Z,100275.28
2018-12-18T13:47:17.774Z,100276.69
2018-12-18T13:49:49.560Z,100279.03
2018-12-18T13:52:18.805Z,100278.24
2018-12-18T13:54:47.837Z,100273.16
2018-12-18T13:57:16.944Z,100270.44
2018-12-18T13:59:46.149Z,100274.41
2018-12-18T14:02:15.570Z,100270.51
2018-12-18T14:04:44.563Z,100276.12
2018-12-18T14:07:14.360Z,100278.67
2018-12-18T14:09:43.245Z,100275.19
2018-12-18T14:12:12.256Z,100280.81
2018-12-18T14:14:41.393Z,100280.80
2018-12-18T14:17:10.320Z,100280.84
2018-12-18T14:19:39.188Z,100282.14
2018-12-18T14:22:08.816Z,100275.28
2018-12-18T14:24:38.103Z,100281.72
2018-12-18T14:27:07.134Z,100282.25
2018-12-18T14:29:36.149Z,100286.47
2018-12-18T14:32:05.924Z,100290.89
2018-12-18T14:34:34.773Z,100285.28
2018-12-18T14:37:04.028Z,100295.63
2018-12-18T14:39:33.264Z,100293.12
2018-12-18T14:42:02.727Z,100283.23
2018-12-18T14:44:31.837Z,100285.41
2018-12-18T14:47:00.644Z,100291.34
2018-12-18T14:49:29.833Z,100292.78
2018-12-18T14:51:58.756Z,100293.63
2018-12-18T14:54:28.600Z,100298.88
2018-12-18T14:56:57.920Z,100296.29
2018-12-18T14:59:27.026Z,100299.61
2018-12-18T15:01:56.590Z,100296.23
2018-12-18T15:04:25.663Z,100295.38
2018-12-18T15:06:54.789Z,100297.89
2018-12-18T15:09:23.825Z,100299.98
2018-12-18T15:11:52.749Z,100297.92
2018-12-18T15:14:21.798Z,100304.39
2018-12-18T15:16:51.155Z,100299.20
2018-12-18T15:19:20.185Z,100304.02
2018-12-18T15:21:49.233Z,100303.98
2018-12-18T15:24:18.235Z,100298.03
2018-12-18T15:26:47.423Z,100304.48
2018-12-18T15:29:17.078Z,100307.05
2018-12-18T15:31:45.909Z,100304.48
2018-12-18T15:34:15.207Z,100304.89
2018-12-18T15:36:44.318Z,100304.48
2018-12-18T15:39:13.345Z,100311.42
2018-12-18T15:41:42.760Z,100308.80
2018-12-18T15:44:12.513Z,100309.76
2018-12-18T15:46:41.781Z,100308.38
2018-12-18T15:49:10.716Z,100302.76
2018-12-18T15:51:39.746Z,100310.16
2018-12-18T15:54:08.686Z,100309.70
2018-12-18T15:56:38.125Z,100311.39
2018-12-18T15:59:07.743Z,100309.27
2018-12-18T16:01:36.981Z,100316.56
2018-12-18T16:04:07.207Z,100320.05
2018-12-18T16:06:43.940Z,100315.66
2018-12-18T16:09:20.949Z,100318.29
2018-12-18T16:11:49.853Z,100326.45
2018-12-18T16:14:18.775Z,100326.42
2018-12-18T16:16:47.978Z,100325.69
2018-12-18T16:19:17.789Z,100325.13
2018-12-18T16:21:47.029Z,100332.37
2018-12-18T16:24:16.252Z,100333.77
2018-12-18T16:26:45.287Z,100331.30
2018-12-18T16:29:14.198Z,100335.08
2018-12-18T16:31:43.805Z,100334.34
2018-12-18T16:34:12.864Z,100335.08
2018-12-18T16:36:42.141Z,100346.47
2018-12-18T16:39:11.259Z,100348.41
2018-12-18T16:41:40.255Z,100342.39
2018-12-18T16:44:09.155Z,100350.39
2018-12-18T16:46:38.109Z,100356.72
2018-12-18T16:49:10.091Z,100358.02
2018-12-18T16:51:39.519Z,100363.64
2018-12-18T16:54:08.575Z,100358.92
2018-12-18T16:56:37.857Z,100367.64
2018-12-18T16:59:07.077Z,100366.72
2018-12-18T17:01:36.669Z,100367.73
2018-12-18T17:04:09.176Z,100377.20
2018-12-18T17:06:38.213Z,100379.86
2018-12-18T17:09:07.253Z,100381.94
2018-12-18T17:11:36.168Z,100389.79
2018-12-18T17:14:04.975Z,100391.58
2018-12-18T17:16:34.349Z,100390.84
2018-12-18T17:19:03.595Z,100395.70
2018-12-18T17:21:32.444Z,100396.58
2018-12-18T17:24:01.494Z,100392.13
2018-12-18T17:26:31.281Z,100402.19
2018-12-18T17:29:00.223Z,100399.20
2018-12-18T17:31:29.742Z,100402.27
2018-12-18T17:33:58.721Z,100399.55
2018-12-18T17:36:27.945Z,100398.83
2018-12-18T17:38:56.864Z,100397.42
2018-12-18T17:41:25.879Z,100398.66
2018-12-18T17:43:55.144Z,100400.01
2018-12-18T17:46:23.994Z,100404.38
2018-12-18T17:48:52.959Z,100402.25
2018-12-18T17:51:21.783Z,100411.33
2018-12-18T17:53:50.849Z,100404.35
2018-12-18T17:56:19.757Z,100405.31
2018-12-18T17:58:48.663Z,100409.20
2018-12-18T18:01:17.697Z,100404.80
2018-12-18T18:03:46.725Z,100407.89
2018-12-18T18:06:15.777Z,100412.63
2018-12-18T18:08:44.717Z,100417.85
2018-12-18T18:11:13.746Z,100416.50
2018-12-18T18:13:42.581Z,100419.00
2018-12-18T18:16:11.505Z,100411.31
2018-12-18T18:18:40.634Z,100410.94
2018-12-18T18:21:09.462Z,100410.50
2018-12-18T18:23:38.601Z,100411.72
2018-12-18T18:26:09.125Z,100414.28
2018-12-18T18:28:38.645Z,100416.56
2018-12-18T18:31:07.671Z,100409.18
2018-12-18T18:33:36.900Z,100413.09
2018-12-18T18:36:05.854Z,100414.39
2018-12-18T18:38:42.261Z,100416.09
2018-12-18T18:41:11.086Z,100415.66
2018-12-18T18:43:40.290Z,100418.70
2018-12-18T18:46:09.209Z,100417.00
2018-12-18T18:48:38.190Z,100415.30
2018-12-18T18:51:07.172Z,100419.18
2018-12-18T18:53:36.650Z,100415.33
2018-12-18T18:56:06.264Z,100423.08
2018-12-18T18:58:35.075Z,100424.31
2018-12-18T19:01:04.248Z,100427.30
2018-12-18T19:03:33.171Z,100430.79
2018-12-18T19:06:02.657Z,100429.48
2018-12-18T19:08:31.691Z,100431.18
2018-12-18T19:11:00.676Z,100430.41
2018-12-18T19:13:30.494Z,100438.13
2018-12-18T19:15:59.533Z,100438.11
2018-12-18T19:18:28.697Z,100437.27
2018-12-18T19:20:57.661Z,100441.64
2018-12-18T19:23:26.818Z,100434.22
2018-12-18T19:25:55.668Z,100439.52
2018-12-18T19:28:24.593Z,100442.53
2018-12-18T19:30:54.005Z,100439.88
2018-12-18T19:33:22.979Z,100440.75
2018-12-18T19:35:51.885Z,100437.73
2018-12-18T19:38:20.797Z,100442.50
2018-12-18T19:40:49.841Z,100441.68
2018-12-18T19:43:18.661Z,100446.80
2018-12-18T19:45:47.628Z,100447.71
2018-12-18T19:48:16.596Z,100453.75
2018-12-18T19:50:45.617Z,100458.11
2018-12-18T19:53:14.646Z,100457.22
2018-12-18T19:55:43.581Z,100462.84
2018-12-18T19:58:12.504Z,100466.27
2018-12-18T20:00:41.413Z,100461.92
2018-12-18T20:03:10.336Z,100469.67
2018-12-18T20:05:39.277Z,100472.30
2018-12-18T20:08:10.167Z,100470.12
2018-12-18T20:10:40.181Z,100471.46
2018-12-18T20:13:09.093Z,100477.54
2018-12-18T20:15:38.177Z,100480.55
2018-12-18T20:18:07.109Z,100479.25
2018-12-18T20:20:36.034Z,100480.16
2018-12-18T20:23:05.057Z,100479.67
2018-12-18T20:25:34.277Z,100482.73
2018-12-18T20:28:03.217Z,100477.54
2018-12-18T20:30:33.356Z,100474.45
2018-12-18T20:33:02.813Z,100474.95
2018-12-18T20:35:31.993Z,100469.28
2018-12-18T20:38:00.883Z,100472.79
2018-12-18T20:40:29.790Z,100469.33
2018-12-18T20:42:58.761Z,100469.70
2018-12-18T20:45:27.677Z,100480.52
2018-12-18T20:47:56.678Z,100487.89
2018-12-18T20:50:25.729Z,100483.58
2018-12-18T20:52:54.666Z,100487.03
2018-12-18T20:55:24.006Z,100492.65
2018-12-18T20:57:52.817Z,100483.58
2018-12-18T21:00:21.829Z,100483.11
2018-12-18T21:02:50.821Z,100484.44
2018-12-18T21:05:19.629Z,100476.22
2018-12-18T21:07:49.288Z,100473.55
2018-12-18T21:10:18.286Z,100469.70
2018-12-18T21:12:47.286Z,100474.47
2018-12-18T21:15:16.305Z,100471.00
2018-12-18T21:17:45.219Z,100471.41
2018-12-18T21:20:14.230Z,100467.13
2018-12-18T21:22:43.209Z,100468.85
2018-12-18T21:25:18.754Z,100467.11
2018-12-18T21:27:43.064Z,100472.34
2018-12-18T21:30:11.937Z,100469.72
2018-12-18T21:32:40.846Z,100464.12
2018-12-18T21:35:09.969Z,100463.67
2018-12-18T21:37:38.894Z,100467.59
2018-12-18T21:40:07.917Z,100464.53
2018-12-18T21:42:36.957Z,100469.30
2018-12-18T21:45:06.128Z,100468.42
2018-12-18T21:47:35.149Z,100473.20
2018-12-18T21:50:05.576Z,100472.79
2018-12-18T21:52:34.468Z,100474.95
2018-12-18T21:55:03.445Z,100465.42
2018-12-18T21:57:32.358Z,100462.41
2018-12-18T22:00:01.239Z,100457.19
2018-12-18T22:02:30.219Z,100460.66
2018-12-18T22:04:59.144Z,100468.05
2018-12-18T22:07:28.057Z,100465.41
2018-12-18T22:09:57.364Z,100461.56
2018-12-18T22:12:26.141Z,100454.61
2018-12-18T22:14:54.928Z,100457.66
2018-12-18T22:17:23.817Z,100452.48
2018-12-18T22:19:52.742Z,100445.11
2018-12-18T22:22:21.616Z,100449.03
2018-12-18T22:24:50.425Z,100447.71
2018-12-18T22:27:19.326Z,100452.06
2018-12-18T22:29:48.257Z,100446.47
2018-12-18T22:32:17.092Z,100450.34
2018-12-18T22:34:46.009Z,100442.95
2018-12-18T22:37:14.973Z,100433.07
2018-12-18T22:39:43.902Z,100441.25
2018-12-18T22:42:12.919Z,100436.53
2018-12-18T22:44:41.943Z,100435.62
2018-12-18T22:47:10.854Z,100429.98
2018-12-18T22:49:39.910Z,100433.03
2018-12-18T22:52:08.718Z,100423.55
2018-12-18T22:54:37.657Z,100421.36
2018-12-18T22:57:07.085Z,100411.44
2018-12-18T22:59:35.950Z,100421.82
2018-12-18T23:02:10.703Z,100417.49
2018-12-18T23:04:39.779Z,100412.33
2018-12-18T23:07:08.799Z,100398.51
2018-12-18T23:09:37.629Z,100405.81
2018-12-18T23:12:06.471Z,100404.96
2018-12-18T23:14:35.509Z,100404.52
2018-12-18T23:17:04.788Z,100402.39
2018-12-18T23:19:33.735Z,100406.70
2018-12-18T23:22:02.829Z,100401.52
2018-12-18T23:24:31.932Z,100398.94
2018-12-18T23:27:00.846Z,100401.55
2018-12-18T23:29:29.680Z,100395.48
2018-12-18T23:31:58.709Z,100398.46
2018-12-18T23:34:32.931Z,100395.90
2018-12-18T23:36:58.802Z,100395.48
2018-12-18T23:39:27.755Z,100395.06
2018-12-18T23:41:56.866Z,100395.45
2018-12-18T23:44:25.893Z,100394.20
2018-12-18T23:46:54.807Z,100400.21
2018-12-18T23:49:23.650Z,100399.34
2018-12-18T23:51:52.702Z,100392.89
2018-12-18T23:54:21.512Z,100394.62
2018-12-18T23:56:50.449Z,100395.48
2018-12-18T23:59:19.464Z,100394.20
